EDDR/SCN METAR and TAF weather

Enter ICAO airport designator
Station Type Date Time Source
EDDR METAR 2020/03/31 22:20 UTC NOAA

EDDR 312220Z 07006KT CAVOK 00/M07 Q1024


Station Type Date Time Source
EDDR Decoded METAR 2020/03/31 22:20 UTC NOAA

Saarbruecken / Ensheim, Germany (EDDR) 49-13N 007-07E 320M
Mar 31, 2020 - 06:20 PM EDT / 2020.03.31 2220 UTC
Wind: from the ENE (070 degrees) at 7 MPH (6 KT):0
Visibility: greater than 7 mile(s):0
Temperature: 32 F (0 C)
Windchill: 24 F (-4 C):1
Dew Point: 19 F (-7 C)
Relative Humidity: 59%
Pressure (altimeter): 30.24 in. Hg (1024 hPa)
ob: EDDR 312220Z 07006KT CAVOK 00/M07 Q1024
cycle: 22

Station Type Date Time Source
EDDR TAF 2020/03/31 18:27 UTC NOAA

TAF EDDR 311700Z 3118/0118 05008KT CAVOK

Example: see airport list